createdAt,value
2022-11-02T00:01:03.205Z,98.83
2022-11-02T00:03:35.694Z,99.21
2022-11-02T00:06:11.135Z,99.16
2022-11-02T00:08:43.481Z,99.32
2022-11-02T00:11:15.815Z,99.83
2022-11-02T00:13:48.146Z,100.00
2022-11-02T00:16:22.347Z,99.76
2022-11-02T00:18:58.075Z,98.68
2022-11-02T00:21:30.515Z,97.95
2022-11-02T00:24:03.895Z,97.25
2022-11-02T00:26:36.604Z,97.58
2022-11-02T00:29:09.532Z,96.94
2022-11-02T00:31:41.860Z,96.54
2022-11-02T00:34:14.291Z,96.10
2022-11-02T00:36:49.547Z,96.14
2022-11-02T00:39:24.274Z,96.41
2022-11-02T00:41:56.639Z,96.54
2022-11-02T00:44:28.979Z,96.62
2022-11-02T00:47:01.274Z,95.94
2022-11-02T00:49:33.622Z,96.28
2022-11-02T00:52:06.343Z,96.42
2022-11-02T00:54:38.706Z,96.56
2022-11-02T00:57:11.029Z,96.66
2022-11-02T00:59:43.321Z,96.48
2022-11-02T01:02:16.045Z,96.69
2022-11-02T01:04:48.536Z,96.32
2022-11-02T01:07:20.902Z,97.03
2022-11-02T01:09:53.279Z,97.35
2022-11-02T01:12:25.821Z,97.54
2022-11-02T01:14:58.232Z,96.94
2022-11-02T01:17:30.553Z,95.83
2022-11-02T01:20:03.170Z,95.55
2022-11-02T01:22:35.808Z,95.80
2022-11-02T01:27:40.736Z,95.17
2022-11-02T01:30:13.318Z,93.29
2022-11-02T01:32:45.785Z,94.31
2022-11-02T01:35:18.178Z,92.02
2022-11-02T01:37:50.465Z,92.74
2022-11-02T01:40:22.932Z,92.77
2022-11-02T01:42:55.384Z,92.72
2022-11-02T01:45:27.880Z,92.70
2022-11-02T01:48:00.456Z,91.63
2022-11-02T01:50:33.268Z,92.32
2022-11-02T01:53:05.581Z,92.54
2022-11-02T01:55:40.201Z,92.81
2022-11-02T01:58:12.681Z,92.51
2022-11-02T02:00:45.051Z,93.25
2022-11-02T02:03:18.646Z,94.12
2022-11-02T02:05:58.951Z,94.95
2022-11-02T02:08:31.840Z,95.34
2022-11-02T02:11:24.045Z,96.48
2022-11-02T02:13:58.882Z,96.56
2022-11-02T02:16:34.509Z,96.91
2022-11-02T02:19:16.211Z,97.57
2022-11-02T02:21:51.240Z,98.85
2022-11-02T02:24:26.575Z,98.86
2022-11-02T02:27:14.417Z,99.54
2022-11-02T02:29:49.420Z,99.77
2022-11-02T02:32:45.026Z,99.15
2022-11-02T02:35:23.625Z,99.20
2022-11-02T02:38:00.614Z,98.81
2022-11-02T02:40:45.073Z,97.93
2022-11-02T02:43:33.679Z,98.39
2022-11-02T02:46:28.160Z,98.17
2022-11-02T02:49:01.321Z,98.89
2022-11-02T02:51:34.455Z,99.27
2022-11-02T02:54:12.483Z,98.59
2022-11-02T02:56:53.966Z,98.85
2022-11-02T02:59:29.054Z,97.33
2022-11-02T03:02:05.341Z,97.20
2022-11-02T03:04:37.834Z,96.77
2022-11-02T03:07:12.050Z,96.71
2022-11-02T03:09:50.834Z,97.03
2022-11-02T03:12:33.808Z,96.36
2022-11-02T03:15:13.330Z,96.55
2022-11-02T03:17:59.992Z,95.42
2022-11-02T03:20:38.474Z,96.25
2022-11-02T03:23:10.839Z,96.24
2022-11-02T03:26:01.792Z,96.30
2022-11-02T03:28:42.861Z,96.25
2022-11-02T03:31:33.770Z,96.12
2022-11-02T03:34:09.024Z,95.58
2022-11-02T03:37:01.365Z,95.01
2022-11-02T03:39:38.863Z,95.24
2022-11-02T03:42:13.636Z,95.62
2022-11-02T03:44:47.691Z,96.08
2022-11-02T03:47:21.044Z,96.20
2022-11-02T03:49:55.497Z,96.06
2022-11-02T03:52:29.447Z,96.04
2022-11-02T03:55:10.803Z,95.85
2022-11-02T03:57:45.165Z,95.15
2022-11-02T04:00:25.015Z,95.82
2022-11-02T04:02:58.940Z,96.34
2022-11-02T04:05:32.872Z,97.19
2022-11-02T04:08:24.457Z,98.11
2022-11-02T04:11:15.537Z,98.90
2022-11-02T04:14:06.442Z,98.73
2022-11-02T04:16:38.847Z,99.29
2022-11-02T04:19:30.049Z,98.82
2022-11-02T04:22:21.305Z,99.94
2022-11-02T04:25:12.448Z,99.41
2022-11-02T04:27:46.497Z,98.77
2022-11-02T04:30:22.444Z,98.77
2022-11-02T04:33:13.113Z,98.98
2022-11-02T04:35:48.140Z,100.00
2022-11-02T04:38:39.133Z,100.00
2022-11-02T04:41:31.016Z,100.00
2022-11-02T04:44:04.169Z,99.79
2022-11-02T04:46:37.156Z,99.49
2022-11-02T04:49:10.261Z,99.93
2022-11-02T04:51:48.732Z,100.00
2022-11-02T04:54:21.198Z,100.00
2022-11-02T04:56:53.618Z,100.00
2022-11-02T04:59:25.910Z,100.00
2022-11-02T05:01:58.396Z,99.77
2022-11-02T05:04:32.875Z,100.00
2022-11-02T05:07:07.549Z,100.00
2022-11-02T05:09:42.196Z,100.00
2022-11-02T05:12:14.641Z,99.70
2022-11-02T05:14:47.109Z,99.72
2022-11-02T05:17:19.538Z,99.57
2022-11-02T05:19:51.949Z,98.72
2022-11-02T05:22:24.289Z,97.03
2022-11-02T05:24:56.556Z,97.62
2022-11-02T05:27:28.864Z,96.70
2022-11-02T05:30:01.330Z,97.07
2022-11-02T05:32:33.619Z,96.54
2022-11-02T05:35:06.171Z,96.43
2022-11-02T05:37:38.489Z,96.58
2022-11-02T05:40:11.183Z,96.98
2022-11-02T05:42:43.450Z,96.59
2022-11-02T05:45:19.307Z,97.37
2022-11-02T05:47:54.499Z,97.66
2022-11-02T05:50:27.081Z,97.90
2022-11-02T05:52:59.369Z,97.67
2022-11-02T05:55:31.671Z,98.08
2022-11-02T05:58:04.013Z,98.22
2022-11-02T06:00:36.342Z,98.53
2022-11-02T06:03:08.664Z,99.09
2022-11-02T06:05:40.967Z,99.25
2022-11-02T06:08:13.303Z,99.94
2022-11-02T06:10:45.649Z,100.00
2022-11-02T06:13:17.961Z,100.00
2022-11-02T06:15:50.287Z,100.00
2022-11-02T06:18:22.676Z,100.00
2022-11-02T06:20:58.975Z,100.00
2022-11-02T06:23:31.681Z,100.00
2022-11-02T06:26:04.105Z,100.00
2022-11-02T06:28:36.428Z,100.00
2022-11-02T06:31:08.765Z,100.00
2022-11-02T06:33:42.102Z,100.00
2022-11-02T06:36:14.631Z,100.00
2022-11-02T06:38:47.114Z,100.00
2022-11-02T06:41:19.406Z,100.00
2022-11-02T06:43:51.866Z,100.00
2022-11-02T06:46:24.395Z,100.00
2022-11-02T06:48:56.946Z,100.00
2022-11-02T06:51:29.386Z,100.00
2022-11-02T06:54:08.134Z,100.00
2022-11-02T06:56:40.886Z,100.00
2022-11-02T06:59:13.379Z,100.00
2022-11-02T07:01:45.790Z,100.00
2022-11-02T07:04:18.374Z,100.00
2022-11-02T07:06:50.702Z,100.00
2022-11-02T07:09:23.034Z,100.00
2022-11-02T07:11:55.359Z,100.00
2022-11-02T07:14:27.881Z,100.00
2022-11-02T07:17:00.164Z,100.00
2022-11-02T07:19:32.485Z,100.00
2022-11-02T07:22:04.880Z,100.00
2022-11-02T07:24:37.214Z,100.00
2022-11-02T07:27:09.642Z,100.00
2022-11-02T07:29:41.918Z,100.00
2022-11-02T07:32:14.565Z,100.00
2022-11-02T07:34:47.067Z,100.00
2022-11-02T07:37:19.362Z,100.00
2022-11-02T07:39:51.637Z,100.00
2022-11-02T07:42:23.976Z,100.00
2022-11-02T07:44:56.376Z,100.00
2022-11-02T07:47:30.373Z,100.00
2022-11-02T07:50:02.834Z,100.00
2022-11-02T07:52:35.265Z,100.00
2022-11-02T07:55:08.015Z,100.00
2022-11-02T07:57:40.380Z,100.00
2022-11-02T08:00:12.874Z,100.00
2022-11-02T08:02:45.255Z,100.00
2022-11-02T08:05:17.622Z,99.82
2022-11-02T08:08:13.965Z,99.27
2022-11-02T08:10:47.422Z,100.00
2022-11-02T08:13:21.354Z,98.51
2022-11-02T08:15:54.235Z,98.12
2022-11-02T08:18:27.815Z,98.09
2022-11-02T08:21:00.802Z,98.36
2022-11-02T08:23:33.401Z,98.42
2022-11-02T08:26:06.081Z,97.05
2022-11-02T08:28:40.333Z,97.01
2022-11-02T08:31:16.944Z,96.06
2022-11-02T08:33:49.337Z,96.39
2022-11-02T08:36:21.694Z,96.34
2022-11-02T08:38:54.053Z,94.90
2022-11-02T08:41:26.439Z,95.06
2022-11-02T08:43:59.028Z,92.96
2022-11-02T08:46:31.497Z,92.96
2022-11-02T08:49:03.866Z,92.59
2022-11-02T08:51:36.191Z,91.71
2022-11-02T08:54:08.536Z,91.88
2022-11-02T08:56:40.842Z,91.27
2022-11-02T08:59:13.222Z,91.29
2022-11-02T09:01:45.729Z,90.47
2022-11-02T09:04:18.739Z,89.43
2022-11-02T09:06:51.171Z,88.33
2022-11-02T09:09:23.535Z,86.33
2022-11-02T09:11:55.832Z,88.08
2022-11-02T09:14:28.156Z,87.02
2022-11-02T09:17:00.470Z,86.91
2022-11-02T09:19:32.754Z,86.51
2022-11-02T09:22:05.926Z,86.05
2022-11-02T09:24:38.482Z,84.08
2022-11-02T09:27:10.862Z,83.81
2022-11-02T09:29:43.285Z,85.19
2022-11-02T09:32:15.605Z,83.47
2022-11-02T09:34:50.409Z,81.85
2022-11-02T09:37:22.938Z,83.06
2022-11-02T09:39:55.491Z,82.88
2022-11-02T09:42:27.779Z,81.12
2022-11-02T09:45:03.000Z,79.01
2022-11-02T09:48:24.992Z,76.99
2022-11-02T09:50:46.448Z,75.91
2022-11-02T09:53:22.334Z,75.54
2022-11-02T09:55:59.042Z,78.53
2022-11-02T09:58:37.214Z,77.34
2022-11-02T10:01:28.307Z,77.88
2022-11-02T10:04:03.476Z,75.21
2022-11-02T10:06:37.213Z,73.42
2022-11-02T10:09:16.328Z,75.14
2022-11-02T10:12:03.499Z,73.71
2022-11-02T10:14:38.111Z,74.38
2022-11-02T10:17:18.796Z,74.37
2022-11-02T10:19:54.902Z,70.75
2022-11-02T10:22:29.337Z,70.73
2022-11-02T10:25:04.882Z,68.46
2022-11-02T10:27:38.531Z,66.44
2022-11-02T10:30:14.167Z,68.56
2022-11-02T10:32:56.425Z,68.82
2022-11-02T10:35:41.200Z,66.50
2022-11-02T10:38:26.820Z,67.71
2022-11-02T10:41:17.848Z,64.79
2022-11-02T10:44:09.074Z,63.87
2022-11-02T10:46:46.601Z,67.70
2022-11-02T10:49:46.090Z,69.69
2022-11-02T10:52:18.583Z,68.41
2022-11-02T10:54:53.727Z,67.70
2022-11-02T10:57:27.908Z,65.25
2022-11-02T11:00:19.013Z,63.70
2022-11-02T11:03:03.666Z,64.52
2022-11-02T11:05:51.914Z,64.49
2022-11-02T11:08:30.206Z,67.89
2022-11-02T11:11:17.940Z,65.29
2022-11-02T11:16:52.735Z,64.66
2022-11-02T11:22:24.331Z,61.93
2022-11-02T11:25:12.001Z,62.57
2022-11-02T11:27:47.006Z,62.00
2022-11-02T11:30:58.879Z,61.77
2022-11-02T11:33:32.284Z,59.94
2022-11-02T11:36:08.370Z,59.65
2022-11-02T11:38:47.404Z,60.44
2022-11-02T11:41:20.124Z,60.66
2022-11-02T11:43:52.920Z,60.15
2022-11-02T11:46:38.791Z,56.70
2022-11-02T11:49:31.124Z,57.82
2022-11-02T11:52:13.929Z,58.03
2022-11-02T11:54:52.801Z,58.63
2022-11-02T11:57:30.346Z,57.19
2022-11-02T12:00:22.688Z,56.45
2022-11-02T12:03:10.923Z,57.75
2022-11-02T12:05:47.277Z,56.60
2022-11-02T12:08:46.103Z,55.83
2022-11-02T12:11:26.019Z,57.89
2022-11-02T12:14:01.505Z,58.30
2022-11-02T12:16:52.623Z,59.59
2022-11-02T12:19:37.208Z,65.24
2022-11-02T12:22:16.397Z,64.26
2022-11-02T12:24:51.613Z,58.63
2022-11-02T12:27:43.581Z,57.19
2022-11-02T12:30:24.868Z,57.85
2022-11-02T12:33:12.708Z,60.84
2022-11-02T12:35:57.877Z,61.76
2022-11-02T12:38:30.297Z,62.64
2022-11-02T12:41:05.754Z,68.51
2022-11-02T12:43:39.871Z,68.59
2022-11-02T12:46:21.789Z,69.05
2022-11-02T12:49:13.017Z,68.28
2022-11-02T12:51:49.397Z,67.94
2022-11-02T12:54:25.290Z,69.12
2022-11-02T12:56:57.864Z,72.01
2022-11-02T12:59:34.173Z,74.85
2022-11-02T13:02:09.864Z,75.75
2022-11-02T13:04:58.176Z,77.13
2022-11-02T13:07:34.278Z,78.57
2022-11-02T13:10:09.619Z,78.26
2022-11-02T13:12:43.390Z,78.06
2022-11-02T13:15:18.756Z,78.37
2022-11-02T13:17:54.693Z,78.66
2022-11-02T13:20:36.021Z,78.21
2022-11-02T13:26:06.453Z,76.74
2022-11-02T13:28:47.864Z,76.91
2022-11-02T13:31:28.149Z,75.08
2022-11-02T13:34:02.926Z,75.46
2022-11-02T13:36:39.020Z,76.22
2022-11-02T13:39:14.368Z,75.67
2022-11-02T13:41:49.700Z,74.76
2022-11-02T13:44:21.978Z,76.03
2022-11-02T13:47:06.425Z,76.96
2022-11-02T13:49:40.263Z,77.53
2022-11-02T13:52:15.254Z,77.86
2022-11-02T13:54:54.027Z,75.34
2022-11-02T13:57:31.389Z,75.23
2022-11-02T14:00:06.290Z,76.14
2022-11-02T14:02:41.527Z,78.31
2022-11-02T14:05:25.099Z,78.31
2022-11-02T14:08:06.659Z,78.00
2022-11-02T14:10:40.780Z,77.00
2022-11-02T14:13:13.731Z,76.46
2022-11-02T14:15:51.679Z,75.55
2022-11-02T14:18:30.697Z,75.05
2022-11-02T14:21:22.989Z,75.74
2022-11-02T14:23:55.311Z,76.59
2022-11-02T14:26:31.900Z,74.81
2022-11-02T14:29:05.544Z,74.37
2022-11-02T14:31:42.321Z,74.14
2022-11-02T14:34:51.155Z,74.10
2022-11-02T14:37:42.119Z,74.90
2022-11-02T14:40:27.022Z,76.08
2022-11-02T14:42:59.308Z,76.59
2022-11-02T14:45:34.674Z,76.87
2022-11-02T14:48:12.187Z,77.75
2022-11-02T14:50:57.548Z,78.64
2022-11-02T14:53:32.236Z,78.45
2022-11-02T14:56:04.674Z,79.42
2022-11-02T14:58:47.982Z,80.13
2022-11-02T15:01:20.630Z,80.80
2022-11-02T15:03:55.022Z,80.60
2022-11-02T15:06:28.305Z,83.37
2022-11-02T15:09:03.971Z,82.83
2022-11-02T15:11:43.559Z,83.04
2022-11-02T15:14:30.848Z,81.96
2022-11-02T15:17:15.422Z,81.92
2022-11-02T15:19:50.500Z,83.14
2022-11-02T15:22:28.876Z,83.25
2022-11-02T15:25:05.004Z,82.46
2022-11-02T15:27:39.305Z,83.34
2022-11-02T15:30:14.570Z,83.43
2022-11-02T15:32:55.374Z,83.30
2022-11-02T15:35:31.636Z,85.36
2022-11-02T15:38:17.468Z,84.75
2022-11-02T15:41:19.935Z,84.25
2022-11-02T15:43:59.352Z,83.60
2022-11-02T15:46:38.826Z,86.23
2022-11-02T15:49:20.739Z,85.13
2022-11-02T15:51:53.020Z,85.39
2022-11-02T15:54:31.435Z,85.28
2022-11-02T15:57:20.391Z,86.56
2022-11-02T15:59:52.711Z,86.11
2022-11-02T16:02:27.010Z,85.87
2022-11-02T16:05:01.477Z,85.90
2022-11-02T16:07:50.181Z,86.71
2022-11-02T16:10:29.348Z,87.06
2022-11-02T16:13:11.781Z,88.22
2022-11-02T16:15:44.665Z,88.73
2022-11-02T16:18:24.249Z,87.87
2022-11-02T16:21:00.828Z,88.32
2022-11-02T16:23:34.549Z,89.59
2022-11-02T16:26:10.697Z,89.18
2022-11-02T16:28:47.767Z,89.66
2022-11-02T16:31:25.043Z,89.54
2022-11-02T16:33:58.915Z,88.24
2022-11-02T16:36:33.777Z,89.26
2022-11-02T16:39:06.022Z,89.13
2022-11-02T16:41:39.158Z,88.68
2022-11-02T16:44:16.175Z,89.54
2022-11-02T16:46:50.362Z,88.60
2022-11-02T16:49:23.545Z,88.81
2022-11-02T16:52:00.053Z,88.56
2022-11-02T16:54:35.367Z,88.02
2022-11-02T16:57:12.079Z,87.28
2022-11-02T16:59:50.556Z,88.39
2022-11-02T17:02:28.834Z,88.78
2022-11-02T17:05:05.979Z,89.69
2022-11-02T17:07:40.880Z,89.44
2022-11-02T17:10:21.119Z,91.13
2022-11-02T17:12:54.492Z,92.25
2022-11-02T17:15:28.702Z,90.86
2022-11-02T17:18:07.422Z,91.72
2022-11-02T17:20:40.326Z,91.56
2022-11-02T17:23:32.572Z,91.14
2022-11-02T17:26:26.307Z,94.11
2022-11-02T17:28:58.955Z,93.04
2022-11-02T17:31:35.788Z,92.24
2022-11-02T17:34:10.044Z,92.05
2022-11-02T17:36:43.456Z,90.49
2022-11-02T17:39:16.736Z,91.71
2022-11-02T17:42:16.060Z,92.12
2022-11-02T17:44:49.182Z,92.46
2022-11-02T17:47:21.800Z,92.63
2022-11-02T17:49:54.245Z,91.94
2022-11-02T17:52:26.584Z,91.72
2022-11-02T17:54:59.176Z,91.69
2022-11-02T17:57:31.561Z,91.91
2022-11-02T18:00:04.521Z,94.03
2022-11-02T18:02:37.086Z,94.85
2022-11-02T18:05:23.989Z,94.19
2022-11-02T18:07:57.664Z,94.64
2022-11-02T18:10:34.789Z,93.00
2022-11-02T18:13:08.871Z,92.01
2022-11-02T18:15:41.700Z,93.57
2022-11-02T18:18:14.420Z,93.76
2022-11-02T18:20:46.831Z,93.42
2022-11-02T18:23:20.350Z,93.22
2022-11-02T18:25:55.312Z,93.03
2022-11-02T18:28:31.845Z,93.07
2022-11-02T18:31:07.938Z,92.62
2022-11-02T18:33:42.359Z,92.94
2022-11-02T18:36:14.729Z,93.10
2022-11-02T18:38:47.263Z,92.90
2022-11-02T18:41:30.445Z,93.07
2022-11-02T18:44:14.847Z,92.49
2022-11-02T18:46:47.896Z,91.99
2022-11-02T18:49:21.781Z,91.48
2022-11-02T18:51:56.826Z,92.61
2022-11-02T18:54:29.424Z,92.34
2022-11-02T18:57:02.240Z,93.02
2022-11-02T18:59:36.251Z,92.18
2022-11-02T19:02:10.635Z,92.65
2022-11-02T19:04:46.200Z,93.60
2022-11-02T19:07:39.805Z,92.82
2022-11-02T19:10:12.529Z,93.19
2022-11-02T19:12:45.266Z,94.49
2022-11-02T19:15:19.923Z,94.06
2022-11-02T19:17:53.463Z,94.60
2022-11-02T19:20:26.169Z,95.34
2022-11-02T19:23:00.313Z,95.14
2022-11-02T19:25:34.473Z,94.63
2022-11-02T19:28:07.218Z,94.07
2022-11-02T19:30:40.389Z,92.99
2022-11-02T19:33:12.919Z,95.46
2022-11-02T19:35:54.591Z,95.28
2022-11-02T19:38:27.336Z,93.29
2022-11-02T19:41:00.563Z,95.88
2022-11-02T19:43:32.953Z,95.70
2022-11-02T19:46:06.515Z,96.28
2022-11-02T19:48:39.346Z,96.29
2022-11-02T19:51:15.810Z,95.41
2022-11-02T19:53:53.022Z,97.53
2022-11-02T19:56:29.859Z,96.52
2022-11-02T19:59:03.521Z,97.28
2022-11-02T20:01:40.154Z,97.38
2022-11-02T20:04:12.765Z,96.80
2022-11-02T20:06:45.450Z,97.43
2022-11-02T20:09:18.762Z,97.47
2022-11-02T20:11:51.416Z,98.48
2022-11-02T20:14:23.948Z,97.42
2022-11-02T20:17:10.765Z,97.71
2022-11-02T20:19:49.028Z,97.41
2022-11-02T20:22:21.799Z,99.31
2022-11-02T20:24:54.368Z,98.45
2022-11-02T20:27:26.821Z,98.32
2022-11-02T20:29:59.375Z,98.25
2022-11-02T20:32:34.447Z,98.62
2022-11-02T20:35:12.492Z,96.90
2022-11-02T20:37:46.156Z,99.92
2022-11-02T20:40:18.898Z,99.67
2022-11-02T20:42:51.532Z,100.00
2022-11-02T20:45:24.538Z,99.16
2022-11-02T20:48:01.560Z,100.00
2022-11-02T20:50:34.422Z,99.53
2022-11-02T20:53:08.817Z,100.00
2022-11-02T20:55:43.882Z,99.78
2022-11-02T20:58:16.257Z,100.00
2022-11-02T21:00:48.857Z,99.44
2022-11-02T21:03:21.356Z,100.00
2022-11-02T21:05:53.723Z,100.00
2022-11-02T21:08:26.105Z,100.00
2022-11-02T21:10:59.734Z,99.60
2022-11-02T21:13:50.895Z,100.00
2022-11-02T21:16:23.216Z,100.00
2022-11-02T21:18:55.836Z,100.00
2022-11-02T21:21:28.270Z,100.00
2022-11-02T21:24:00.657Z,100.00
2022-11-02T21:26:34.631Z,100.00
2022-11-02T21:29:07.539Z,99.51
2022-11-02T21:31:39.978Z,99.82
2022-11-02T21:34:12.566Z,100.00
2022-11-02T21:36:45.968Z,100.00
2022-11-02T21:39:18.586Z,99.72
2022-11-02T21:41:51.125Z,100.00
2022-11-02T21:44:24.854Z,100.00
2022-11-02T21:46:57.361Z,100.00
2022-11-02T21:49:32.177Z,100.00
2022-11-02T21:52:04.893Z,100.00
2022-11-02T22:02:44.745Z,100.00
2022-11-02T22:05:37.655Z,100.00
2022-11-02T22:11:01.155Z,100.00
2022-11-02T22:13:34.286Z,99.93
2022-11-02T22:16:20.540Z,100.00
2022-11-02T22:18:54.842Z,100.00
2022-11-02T22:21:28.448Z,100.00
2022-11-02T22:24:01.115Z,100.00
2022-11-02T22:26:34.259Z,100.00
2022-11-02T22:29:06.857Z,100.00
2022-11-02T22:31:40.222Z,100.00
2022-11-02T22:34:13.759Z,100.00
2022-11-02T22:36:46.167Z,100.00
2022-11-02T22:39:18.519Z,100.00
2022-11-02T22:41:50.901Z,100.00
2022-11-02T22:44:23.207Z,100.00
2022-11-02T22:46:55.816Z,100.00
2022-11-02T22:49:28.112Z,100.00
2022-11-02T22:52:01.045Z,100.00
2022-11-02T22:54:33.400Z,100.00
2022-11-02T22:57:05.874Z,100.00
2022-11-02T22:59:38.324Z,100.00
2022-11-02T23:02:11.142Z,100.00
2022-11-02T23:04:43.493Z,100.00
2022-11-02T23:07:15.859Z,100.00
2022-11-02T23:09:48.225Z,100.00
2022-11-02T23:12:20.688Z,100.00
2022-11-02T23:14:53.035Z,100.00
2022-11-02T23:17:25.465Z,100.00
2022-11-02T23:19:57.991Z,100.00
2022-11-02T23:22:33.148Z,100.00
2022-11-02T23:25:12.334Z,100.00
2022-11-02T23:28:04.757Z,100.00
2022-11-02T23:30:55.938Z,100.00
2022-11-02T23:33:29.288Z,100.00
2022-11-02T23:36:11.354Z,100.00
2022-11-02T23:39:03.755Z,100.00
2022-11-02T23:41:38.873Z,100.00
2022-11-02T23:44:12.336Z,100.00
2022-11-02T23:46:45.884Z,100.00
2022-11-02T23:49:18.712Z,100.00
2022-11-02T23:52:09.824Z,100.00
2022-11-02T23:55:00.834Z,100.00
2022-11-02T23:57:33.406Z,100.00
